Urundel, Argentina
Current Conditions -  °F | °C
As of 11:00 AM on Thursday 30 Oct 2014 (Local Time) from SASJ Reporting Station
Broken Clouds Broken Clouds  
Wind Chill: 77°   Ceiling: 10000
Heat Index: 79°   Visibility: 6mi
Dew Point: 57°   Wind: 10mph
Humidity: 50%   Direction: 180°S
Pressure: 29.85"   Gusts: NA
Location:  23.55°S, 64.42°W
Report Text: SASJ 301400Z 18009KT 120V240 9999 SCT030BKN100 25/14 Q1011
Loading
Personal Weather Stations






























Interactive Weather Map
Tropical Storm Tracking
New forecast layout! Learn more

10-Day Weather Forecast

Advertisements
Track Severe Weather on mobile